Flight Track Log - Related Links

Times and Time Zones

All times are in EST time to prevent confusion due to time zone crossing. See the BOE1 flight status page for this flight to view local times or setup timezone preferences in your user account.

Time Position Orientation Groundspeed Altitude Reporting Facility
EST Latitude Longitude Course Direction KTS MPH feet Rate Location/Type
Thu 06:37:22 PM 47.2744 -119.3030 110° East 222 255 4,300  Level Seattle Center
Thu 06:38:34 PM 47.2572 -119.2140 113° Southeast 10,000 2,136 Climbing Seattle Center
Thu 06:39:34 PM 47.2275 -119.1110 114° Southeast 267 307 9,000 400 Descending Seattle Center
Thu 06:40:34 PM 47.1978 -119.0130 111° Southeast 267 307 10,800 1,200 Climbing Seattle Center
Thu 06:41:34 PM 47.1722 -118.9130 115° Southeast 262 302 11,400 700 Climbing Seattle Center
Thu 06:42:34 PM 47.1467 -118.8310 111° Southeast 248 285 12,200 600 Climbing Seattle Center
Thu 06:43:34 PM 47.1250 -118.7460 114° Southeast 232 267 12,600 150 Climbing Seattle Center
Thu 06:44:34 PM 47.0994 -118.6610 112° Southeast 232 267 12,500 -50 Descending Seattle Center
Thu 06:45:34 PM 47.0756 -118.5730 114° Southeast 232 267 12,500 50 Level Seattle Center
Thu 06:46:34 PM 47.0497 -118.4890 111° Southeast 232 267 12,600  Climbing Seattle Center
Thu 06:47:34 PM 47.0281 -118.4070 115° Southeast 227 261 12,500 -50 Descending Seattle Center
Thu 06:48:34 PM 47.0064 -118.3380 111° Southeast 206 237 12,500 50 Level Seattle Center
Thu 06:49:34 PM 46.9889 -118.2710 116° Southeast 184 212 12,600 100 Climbing Seattle Center
Thu 06:50:34 PM 46.9692 -118.2110 113° Southeast 174 200 12,700 300 Climbing Seattle Center
Thu 06:51:34 PM 46.9497 -118.1450 113° Southeast 169 194 13,200 400 Climbing Seattle Center
Thu 06:52:34 PM 46.9300 -118.0780 115° Southeast 169 194 13,500 100 Climbing Seattle Center
Thu 06:53:34 PM 46.9103 -118.0150 114° Southeast 169 194 13,400 -150 Descending Seattle Center
Thu 06:54:34 PM 46.8906 -117.9490 114° Southeast 169 194 13,200 -250 Descending Seattle Center
Thu 06:55:34 PM 46.8708 -117.8830 119° Southeast 169 194 12,900 -200 Descending Seattle Center
Thu 06:56:34 PM 46.8467 -117.8200 116° Southeast 174 200 12,800 -50 Descending Seattle Center
Thu 06:57:34 PM 46.8247 -117.7540 115° Southeast 174 200 12,800 200 Level Seattle Center
Thu 06:58:34 PM 46.8050 -117.6910 114° Southeast 174 200 13,200 400 Climbing Seattle Center
Thu 06:59:34 PM 46.7850 -117.6250 112° Southeast 174 200 13,600 250 Climbing Seattle Center
Thu 07:00:34 PM 46.7650 -117.5530 115° Southeast 174 200 13,700 -50 Climbing Seattle Center
Thu 07:01:34 PM 46.7450 -117.4910 106° East 174 200 13,500 -400 Descending Seattle Center
Thu 07:02:34 PM 46.7311 -117.4220 107° East 174 200 12,900 -500 Descending Seattle Center
Thu 07:03:34 PM 46.7172 -117.3560 118° Southeast 168 193 12,500 -400 Descending Seattle Center
Thu 07:04:34 PM 46.6953 -117.2960 119° Southeast 168 193 12,100 -100 Descending Seattle Center
Thu 07:05:34 PM 46.6731 -117.2370 99° East 168 193 12,300 700 Climbing Seattle Center
Thu 07:06:34 PM 46.6656 -117.1710 North 173 199 13,500 750 Climbing Seattle Center
Thu 07:07:34 PM 46.7089 -117.1620 301° West 125 144 13,800 100 Climbing Seattle Center
Thu 07:08:34 PM 46.7308 -117.2160 297° West 81 93 13,700 -50 Descending Seattle Center
Thu 07:09:34 PM 46.7489 -117.2690 291° West 124 143 13,700 -100 Level Seattle Center
Thu 07:10:34 PM 46.7647 -117.3290 292° West 140 161 13,500 -400 Descending Seattle Center
Thu 07:11:34 PM 46.7803 -117.3860 298° West 154 177 12,900 -350 Descending Seattle Center
Thu 07:12:34 PM 46.8003 -117.4400 305° West 154 177 12,800 -100 Descending Seattle Center
Thu 07:13:34 PM 46.8242 -117.4900 290° West 149 171 12,700  Descending Seattle Center
Thu 07:14:34 PM 46.8378 -117.5440 292° West 149 171 12,800 550 Climbing Seattle Center
Thu 07:15:34 PM 46.8556 -117.6070 288° West 159 183 13,800 550 Climbing Seattle Center
Thu 07:16:34 PM 46.8736 -117.6890 288° West 186 214 13,900 50 Climbing Seattle Center
Thu 07:17:34 PM 46.8939 -117.7820 287° West 219 252 13,900 -50 Level Seattle Center
Thu 07:18:34 PM 46.9144 -117.8820 286° West 241 277 13,800 -200 Descending Seattle Center
Thu 07:19:34 PM 46.9347 -117.9840 286° West 254 292 13,500 -300 Descending Seattle Center
Thu 07:20:34 PM 46.9550 -118.0870 289° West 260 299 13,200 -100 Descending Seattle Center
Thu 07:21:34 PM 46.9772 -118.1830 295° West 260 299 13,300 350 Climbing Seattle Center
Thu 07:22:34 PM 47.0056 -118.2740 288° West 260 299 13,900 200 Climbing Seattle Center
Thu 07:23:34 PM 47.0275 -118.3710 289° West 255 293 13,700 -150 Descending Seattle Center
Thu 07:24:34 PM 47.0494 -118.4670 282° West 250 288 13,600 -100 Descending Seattle Center
Thu 07:25:34 PM 47.0650 -118.5710 286° West 250 288 13,500 -50 Descending Seattle Center
Thu 07:26:34 PM 47.0850 -118.6770 283° West 262 302 13,500 200 Level Seattle Center
Thu 07:27:34 PM 47.1003 -118.7770 170° South 262 302 13,900 200 Climbing Seattle Center
Thu 07:28:34 PM 47.0461 -118.7630 101° East 142 163 13,900 -50 Level Seattle Center
Thu 07:29:34 PM 47.0306 -118.6510 102° East 134 154 13,800 -300 Descending Seattle Center
Thu 07:30:34 PM 47.0147 -118.5380 95° East 205 236 13,300 -250 Descending Seattle Center
Thu 07:31:34 PM 47.0072 -118.4230 103° East 250 288 13,300 -100 Level Seattle Center
Thu 07:32:34 PM 46.9892 -118.3080 100° East 281 323 13,100  Descending Seattle Center
Thu 07:33:34 PM 46.9753 -118.1960 103° East 286 329 13,300 200 Climbing Seattle Center
Thu 07:34:34 PM 46.9592 -118.0930 103° East 273 314 13,500 200 Climbing Seattle Center
Thu 07:35:34 PM 46.9433 -117.9930 32° Northeast 261 300 13,700 100 Climbing Seattle Center
Thu 07:36:34 PM 46.9822 -117.9580 308° West 185 213 13,700  Level Seattle Center
Thu 07:37:34 PM 47.0208 -118.0300 305° West 106 122 13,700 -50 Level Seattle Center
Thu 07:38:34 PM 47.0553 -118.1020 299° West 161 185 13,600 -50 Descending Seattle Center
Thu 07:39:34 PM 47.0811 -118.1710 266° West 185 213 13,600  Level Seattle Center
Thu 07:40:34 PM 47.0778 -118.2380 262° West 179 206 13,600 -100 Level Seattle Center
Thu 07:41:34 PM 47.0722 -118.2930 265° West 159 183 13,400 -300 Descending Seattle Center
Thu 07:42:34 PM 47.0689 -118.3540 259° West 154 177 13,000 -250 Descending Seattle Center
Thu 07:43:34 PM 47.0594 -118.4280 262° West 169 194 12,900  Descending Seattle Center
Thu 07:44:34 PM 47.0519 -118.5040 261° West 182 209 13,000 50 Climbing Seattle Center
Thu 07:45:34 PM 47.0444 -118.5770 266° West 182 209 13,000  Level Seattle Center
Thu 07:46:34 PM 47.0408 -118.6500 266° West 182 209 13,000 50 Level Seattle Center
Thu 07:47:34 PM 47.0375 -118.7260 260° West 182 209 13,100  Climbing Seattle Center
Thu 07:48:34 PM 47.0278 -118.8030 263° West 182 209 13,000 -50 Descending Seattle Center
Thu 07:49:34 PM 47.0203 -118.8970 263° West 205 236 13,000  Level Seattle Center
Thu 07:50:34 PM 47.0125 -118.9950 262° West 229 264 13,000  Level Seattle Center
Thu 07:51:34 PM 47.0028 -119.0920 260° West 241 277 13,000  Level Seattle Center
Thu 07:52:34 PM 46.9908 -119.1870 265° West 241 277 13,000  Level Seattle Center
Thu 07:53:34 PM 46.9850 -119.2900 259° West 247 284 13,000 -250 Level Seattle Center
Thu 07:54:34 PM 46.9708 -119.3940 263° West 252 290 12,500 -500 Descending Seattle Center
Thu 07:55:34 PM 46.9628 -119.4910 261° West 258 297 12,000 -250 Descending Seattle Center
Thu 07:56:34 PM 46.9525 -119.5910 264° West 258 297 12,000  Level Seattle Center
Thu 07:57:34 PM 46.9444 -119.6980 257° West 258 297 12,000  Level Seattle Center
Thu 07:58:34 PM 46.9300 -119.7920 265° West 253 291 12,000  Level Seattle Center
Thu 07:59:34 PM 46.9236 -119.8950 260° West 258 297 12,000  Level Seattle Center
Thu 08:00:34 PM 46.9108 -119.9980 262° West 258 297 12,000 50 Level Seattle Center
Thu 08:01:34 PM 46.8981 -120.1230 261° West 277 319 12,100 50 Climbing Seattle Center
Thu 08:02:34 PM 46.8875 -120.2230 263° West 277 319 12,100  Level Seattle Center
Thu 08:03:34 PM 46.8786 -120.3260 261° West 271 312 12,100  Level Seattle Center
Thu 08:04:34 PM 46.8678 -120.4260 278° West 271 312 12,100 -50 Level Seattle Center
Thu 08:05:34 PM 46.8775 -120.5290 288° West 258 297 12,000 -50 Descending Seattle Center
Thu 08:06:34 PM 46.8997 -120.6300 285° West 258 297 12,000  Level Seattle Center
Thu 08:07:34 PM 46.9178 -120.7300 286° West 258 297 12,000  Level Seattle Center
Thu 08:08:34 PM 46.9358 -120.8220 287° West 263 303 12,000 -50 Level Seattle Center
Thu 08:09:34 PM 46.9556 -120.9190 287° West 263 303 11,900 -250 Descending Seattle Center
Thu 08:10:34 PM 46.9756 -121.0140 284° West 258 297 11,500 -600 Descending Seattle Center
Thu 08:11:34 PM 46.9931 -121.1180 287° West 258 297 10,700 -750 Descending Seattle Center
Thu 08:12:34 PM 47.0147 -121.2220 289° West 258 297 10,000 -400 Descending Seattle Center
Thu 08:13:34 PM 47.0364 -121.3140 285° West 255 293 9,900 -50 Descending Seattle Center
Thu 08:14:34 PM 47.0539 -121.4120 286° West 250 288 9,900 50 Level Seattle Center
Thu 08:15:34 PM 47.0733 -121.5100 304° West 250 288 10,000 50 Climbing Seattle Center
Thu 08:16:34 PM 47.1136 -121.5990 303° West 250 288 10,000  Level Seattle Center
Thu 08:17:34 PM 47.1539 -121.6890 303° West 263 303 10,000  Level Seattle Center
Thu 08:18:34 PM 47.1939 -121.7790 306° West 268 308 10,000  Level Seattle Center
Thu 08:19:34 PM 47.2361 -121.8660 303° West 263 303 10,000  Level Seattle Center
Thu 08:20:34 PM 47.2742 -121.9530 302° West 263 303 10,000  Level Seattle Center
Thu 08:20:50 PM 47.2900 -121.9910 304° West 263 303 10,000  Level Seattle Center
Thu 08:21:34 PM 47.3142 -122.0430 303° West 263 303 10,000  Level Seattle Center
Thu 08:21:51 PM 47.3319 -122.0840 306° West 266 306 10,000  Level Seattle Center
Thu 08:22:34 PM 47.3561 -122.1340 305° West 263 303 10,000  Level Seattle Center
Thu 08:22:52 PM 47.3758 -122.1750 303° West 269 310 10,000 -400 Level Seattle Center
Thu 08:23:34 PM 47.3978 -122.2250 303° West 263 303 9,600 -806 Descending Seattle Center
Thu 08:23:59 PM 47.4197 -122.2750 301° West 270 311 9,100 -900 Descending Seattle Center
Thu 08:24:34 PM 47.4375 -122.3190 288° West 263 303 8,700 -1,333 Descending Seattle Center
Thu 08:24:53 PM 47.4450 -122.3530 314° West 256 295 7,900 -2,000 Descending Seattle Center
Thu 08:25:34 PM 47.4753 -122.4000 327° Northwest 257 296 6,700 -2,262 Descending Seattle Center
Thu 08:25:54 PM 47.5058 -122.4290 327° Northwest 258 297 5,600 -2,200 Descending Seattle Center
Thu 08:26:34 PM 47.5364 -122.4580 319° Northwest 245 282 4,500 -2,149 Descending Seattle Center
Thu 08:27:01 PM 47.5667 -122.4970 335° Northwest 254 292 3,200 -2,100 Descending Seattle Center
Thu 08:27:34 PM 47.5953 -122.5170 35° Northeast 251 289 2,400 -645 Descending Seattle Center
Thu 08:28:34 PM 47.6403 -122.4700 105° East 184 212 2,200 -234 Descending Seattle Center
Thu 08:28:51 PM 47.6347 -122.4390 111° Southeast 173 199 2,100 -500 Descending Seattle Center
Thu 08:29:34 PM 47.6250 -122.4010 143° Southeast 106 122 1,700 -393 Descending Seattle Center
Thu 08:29:52 PM 47.6169 -122.3920 133° Southeast 135 155 1,700 -300 Level Seattle Center
Thu 08:30:34 PM 47.5989 -122.3630 150° Southeast 97 112 1,400 -500 Descending Seattle Center
Thu 08:30:52 PM 47.5906 -122.3560 146° Southeast 126 145 1,200 -600 Descending Seattle Center
Thu 08:31:34 PM 47.5683 -122.3340 175° South 107 123 800 -571 Descending Seattle Center
Thu 08:31:55 PM 47.5600 -122.3330 137° Southeast 128 147 600 -600 Descending Seattle Center
Thu 08:32:34 PM 47.5439 -122.3110 137° Southeast 125 144 200 -615 Descending Seattle Center

Login

Don't have an account? Register now (free) for customized features, flight alerts, and more!